Latest Coastal Weather Observations for Smithton

IDT60701

Issued at 4:15 pm EST Tuesday 23 September 2014 (issued every 10 minutes, with the page automatically refreshed every 10 minutes)

About coastal observations | Map of coastal stations | Coastal observations for TAS | Marine services | Other Formats
Station Details ID: 091292 Name: SMITHTON AERODROME Lat: -40.83 Lon: 145.08 Height: 7.5 m
Data from the previous 72 hours. | See also: Recent months at Smithton
Date/Time
EST
Temp

°C
Wind Pressure Rain
since 9am
mm
Weather Cloud Vis
km
Sea
Height
m
Swell
Dir
 
Speed
knots
Gust
knots
hPa Trend Height
m
Period
s
Dir
23/03:30pm 17.1 ENE 9 12 1022.5 - 0.0 - - - - - - -
23/03:00pm 17.2 ENE 8 11 1022.9 - 0.0 - - - - - - -
23/02:30pm 16.9 NE 8 11 1023.4 - 0.0 - - - - - - -
23/12:30pm 16.6 ENE 10 12 1024.7 - 0.0 - - - - - - -
23/12:00pm 16.7 NE 10 13 1024.9 - 0.0 - - - - - - -
23/11:30am 16.5 ENE 10 13 1025.2 - 0.0 - - - - - - -
23/11:00am 16.8 ENE 11 13 1025.5 - 0.0 - - - - - - -
23/10:30am 16.0 ENE 10 13 1025.7 - 0.0 - - - - - - -
23/10:00am 15.1 ENE 12 15 1026.0 - 0.0 - - - - - - -
23/09:30am 14.7 ENE 11 13 1026.2 - 0.0 - - - - - - -
23/09:00am 13.8 ENE 10 12 1026.3 - 0.0 - - - - - - -
23/08:30am 12.5 ENE 8 11 1026.5 - 0.0 - - - - - - -
23/08:00am 10.9 E 5 8 1026.4 - 0.0 - - - - - - -
23/07:30am 9.8 E 6 8 1026.4 - 0.0 - - - - - - -
23/07:00am 8.5 E 5 6 1026.4 - 0.0 - - - - - - -
23/06:30am 7.7 ESE 5 6 1026.3 - 0.0 - - - - - - -
23/06:00am 7.0 ESE 6 7 1026.1 - 0.0 - - - - - - -
23/05:30am 8.0 ESE 6 7 1026.1 - 0.0 - - - - - - -
23/05:00am 7.6 ESE 6 6 1026.0 - 0.0 - - - - - - -
23/04:30am 7.2 ESE 5 6 1026.0 - 0.0 - - - - - - -
23/04:00am 6.1 ESE 1 5 1026.0 - 0.0 - - - - - - -
23/03:30am 5.4 ESE 3 4 1025.9 - 0.0 - - - - - - -
23/03:00am 5.7 ESE 4 5 1026.0 - 0.0 - - - - - - -
23/02:30am 4.8 ESE 3 4 1026.2 - 0.0 - - - - - - -
23/02:00am 6.0 E 5 6 1026.2 - 0.0 - - - - - - -
23/01:30am 6.2 E 3 4 1026.6 - 0.0 - - - - - - -
23/01:00am 4.7 E 3 4 1026.8 - 0.0 - - - - - - -
23/12:30am 5.0 E 4 4 1027.0 - 0.0 - - - - - - -
23/12:00am 5.5 E 3 4 1027.1 - 0.0 - - - - - - -
 
Date/Time
EST
Temp

°C
Wind Pressure Rain
since 9am
mm
Weather Cloud Vis
km
Sea
Height
m
Swell
Dir
 
Speed
knots
Gust
knots
hPa Trend Height
m
Period
s
Dir
22/11:30pm 6.0 E 4 4 1027.1 - 0.0 - - - - - - -
22/11:00pm 7.5 CALM 0 0 1027.3 - 0.0 - - - - - - -
22/10:30pm 8.8 E 4 5 1027.6 - 0.0 - - - - - - -
22/10:00pm 9.2 ESE 6 7 1027.7 - 0.0 - - - - - - -
22/09:30pm 8.1 SSE 5 6 1027.5 - 0.0 - - - - - - -
22/09:00pm 8.8 NNE 4 5 1027.1 - 0.0 - - - - - - -
22/08:30pm 10.0 N 5 7 1026.9 - 0.0 - - - - - - -
22/08:00pm 10.1 N 6 7 1026.9 - 0.0 - - - - - - -
22/07:30pm 10.1 N 6 8 1026.9 - 0.0 - - - - - - -
22/07:00pm 10.4 N 5 5 1026.9 - 0.0 - - - - - - -
22/06:30pm 10.8 N 5 6 1026.5 - 0.0 - - - - - - -
22/06:00pm 11.5 N 7 9 1026.4 - 0.0 - - - - - - -
22/05:30pm 12.6 N 8 10 1026.5 - 0.0 - - - - - - -
22/05:00pm 13.3 N 8 11 1026.5 - 0.0 - - - - - - -
22/04:30pm 13.8 NNE 9 11 1026.6 - 0.0 - - - - - - -
22/04:00pm 14.2 N 9 11 1026.6 - 0.0 - - - - - - -
22/03:30pm 14.8 NNE 10 12 1026.7 - 0.0 - - - - - - -
22/03:00pm 15.1 N 10 13 1026.8 - 0.0 - - - - - - -
22/02:30pm 14.9 NNE 10 14 1027.2 - 0.0 - - - - - - -
22/02:00pm 14.8 NNE 11 13 1027.3 - 0.0 - - - - - - -
22/01:30pm 15.0 NNE 11 14 1027.3 - 0.0 - - - - - - -
22/01:00pm 15.1 NNE 11 14 1027.6 - 0.0 - - - - - - -
22/12:30pm 15.0 NNE 10 14 1027.8 - 0.0 - - - - - - -
22/12:00pm 14.8 NNE 10 13 1028.1 - 0.0 - - - - - - -
22/11:30am 14.4 NNE 10 13 1028.4 - 0.0 - - - - - - -
22/11:00am 13.8 NNE 10 13 1028.5 - 0.0 - - - - - - -
22/10:30am 14.2 NNE 8 11 1028.9 - 0.0 - - - - - - -
22/10:00am 13.8 NNE 8 11 1029.1 - 0.0 - - - - - - -
22/09:30am 12.6 NNE 6 7 1029.2 - 0.0 - - - - - - -
22/09:00am 11.8 S 1 4 1029.4 - 0.0 - - - - - - -
22/08:30am 9.6 CALM 0 0 1029.4 - 0.0 - - - - - - -
22/08:00am 7.4 CALM 0 0 1029.3 - 0.0 - - - - - - -
22/07:30am 5.4 S 4 5 1029.3 - 0.0 - - - - - - -
22/07:00am 3.3 S 4 5 1029.1 - 0.0 - - - - - - -
22/06:30am 3.0 S 4 6 1029.0 - 0.0 - - - - - - -
22/06:00am 2.3 SSW 4 5 1028.7 - 0.0 - - - - - - -
22/05:30am 2.2 SSW 5 6 1028.5 - 0.0 - - - - - - -
22/05:00am 2.5 SSW 4 5 1028.3 - 0.0 - - - - - - -
22/04:30am 2.3 SSW 5 6 1028.1 - 0.0 - - - - - - -
22/04:00am 2.7 SSW 5 6 1027.9 - 0.0 - - - - - - -
22/03:30am 3.1 SSW 3 4 1027.7 - 0.0 - - - - - - -
22/03:00am 2.7 SSW 4 5 1027.7 - 0.0 - - - - - - -
22/02:30am 3.2 SSW 2 4 1027.6 - 0.0 - - - - - - -
22/02:00am 4.2 SSW 1 4 1027.6 - 0.0 - - - - - - -
22/01:30am 4.1 CALM 0 4 1027.8 - 0.0 - - - - - - -
22/01:00am 5.4 SSW 4 6 1027.9 - 0.0 - - - - - - -
22/12:30am 5.5 SSW 7 8 1028.2 - 0.0 - - - - - - -
22/12:00am 6.0 SW 8 9 1028.3 - 0.0 - - - - - - -
 
Date/Time
EST
Temp

°C
Wind Pressure Rain
since 9am
mm
Weather Cloud Vis
km
Sea
Height
m
Swell
Dir
 
Speed
knots
Gust
knots
hPa Trend Height
m
Period
s
Dir
21/11:30pm 6.6 SSW 6 8 1028.5 - 0.0 - - - - - - -
21/11:00pm 7.1 SSW 8 11 1028.7 - 0.0 - - - - - - -
21/10:30pm 8.0 SW 9 11 1028.8 - 0.0 - - - - - - -
21/10:00pm 7.0 SW 7 8 1029.1 - 0.0 - - - - - - -
21/09:30pm 7.8 SSW 8 9 1029.1 - 0.0 - - - - - - -
21/09:00pm 8.2 SW 8 10 1029.1 - 0.0 - - - - - - -
21/08:30pm 8.3 WSW 9 10 1029.3 - 0.0 - - - - - - -
21/08:00pm 8.8 WSW 10 11 1029.3 - 0.0 - - - - - - -
21/07:30pm 9.1 WSW 8 10 1029.1 - 0.0 - - - - - - -
21/07:00pm 9.5 SW 8 10 1029.0 - 0.0 - - - - - - -
21/06:30pm 10.7 WSW 10 12 1028.8 - 0.0 - - - - - - -
21/06:00pm 12.2 SW 11 13 1028.6 - 0.0 - - - - - - -
21/05:30pm 13.4 SW 12 17 1028.5 - 0.0 - - - - - - -
21/05:00pm 14.3 SW 14 18 1028.2 - 0.0 - - - - - - -
21/04:30pm 15.0 SW 13 17 1028.2 - 0.0 - - - - - - -
21/04:00pm 15.2 SW 16 21 1028.3 - 0.0 - - - - - - -
21/03:30pm 15.3 SW 18 25 1028.2 - 0.0 - - - - - - -
21/03:00pm 16.4 SW 14 18 1028.6 - 0.0 - - - - - - -
21/02:30pm 15.4 SW 12 17 1028.8 - 0.0 - - - - - - -
21/02:00pm 15.7 SW 16 24 1028.8 - 0.0 - - - - - - -
21/01:30pm 15.6 SW 17 23 1028.7 - 0.0 - - - - - - -
21/01:00pm 15.1 SW 19 25 1028.7 - 0.0 - - - - - - -
21/12:30pm 15.8 SW 19 23 1028.9 - 0.0 - - - - - - -
21/12:00pm 16.4 SW 15 24 1029.3 - 0.0 - - - - - - -
21/11:30am 13.7 SSW 13 17 1029.8 - 0.0 - - - - - - -
21/11:00am 15.2 SW 15 20 1029.8 - 0.0 - - - - - - -
21/10:30am 13.9 SW 15 19 1030.2 - 0.0 - - - - - - -
21/10:00am 14.3 SW 15 20 1030.2 - 0.0 - - - - - - -
21/09:30am 13.3 SW 16 21 1030.2 - 0.0 - - - - - - -
21/09:00am 12.9 SSW 19 24 1030.1 - 0.0 - - - - - - -
21/08:30am 12.3 SW 20 24 1030.1 - 0.0 - - - - - - -
21/08:00am 12.1 SW 10 15 1029.8 - 0.0 - - - - - - -
21/07:30am 9.8 SSW 6 7 1029.8 - 0.0 - - - - - - -
21/07:00am 7.0 W 5 6 1029.5 - 0.0 - - - - - - -
21/06:30am 6.0 W 5 6 1029.2 - 0.0 - - - - - - -
21/06:00am 5.9 W 5 6 1028.8 - 0.0 - - - - - - -
21/05:30am 7.6 WSW 5 6 1028.6 - 0.0 - - - - - - -
21/05:00am 7.0 W 5 6 1028.6 - 0.0 - - - - - - -
21/04:30am 6.7 WSW 6 7 1028.4 - 0.0 - - - - - - -
21/04:00am 7.7 SW 4 5 1028.3 - 0.0 - - - - - - -
21/03:30am 7.4 WSW 10 11 1028.2 - 0.0 - - - - - - -
21/03:00am 6.7 SW 9 9 1028.3 - 0.0 - - - - - - -
21/02:30am 6.4 W 7 8 1028.3 - 0.0 - - - - - - -
21/02:00am 7.4 WSW 8 9 1028.6 - 0.0 - - - - - - -
21/01:30am 8.0 WSW 7 8 1028.8 - 0.0 - - - - - - -
21/01:00am 8.6 WSW 8 9 1029.0 - 0.0 - - - - - - -
21/12:30am 8.6 WSW 9 9 1029.1 - 0.0 - - - - - - -
21/12:00am 7.3 WSW 9 11 1028.9 - 0.0 - - - - - - -
 
Date/Time
EST
Temp

°C
Wind Pressure Rain
since 9am
mm
Weather Cloud Vis
km
Sea
Height
m
Swell
Dir
 
Speed
knots
Gust
knots
hPa Trend Height
m
Period
s
Dir
20/11:30pm 8.5 SW 9 11 1028.8 - 0.0 - - - - - - -
20/11:00pm 9.1 WSW 10 12 1029.1 - 0.0 - - - - - - -
20/10:30pm 9.2 SW 11 14 1029.1 - 0.0 - - - - - - -
20/10:00pm 9.4 WSW 8 12 1029.4 - 0.0 - - - - - - -
20/09:30pm 8.4 SW 6 8 1029.4 - 0.0 - - - - - - -
20/09:00pm 9.0 SW 7 9 1029.1 - 0.0 - - - - - - -
20/08:30pm 5.6 WSW 6 7 1029.2 - 0.0 - - - - - - -
20/08:00pm 7.0 WSW 7 8 1029.0 - 0.0 - - - - - - -
20/07:30pm 8.6 WSW 6 8 1028.8 - 0.0 - - - - - - -
20/07:00pm 7.6 WSW 8 9 1028.4 - 0.0 - - - - - - -
20/06:30pm 9.9 SW 8 11 1028.0 - 0.0 - - - - - - -
20/06:00pm 10.4 SW 10 14 1028.0 - 0.0 - - - - - - -
20/05:30pm 11.3 SW 13 18 1027.7 - 0.0 - - - - - - -
20/05:00pm 12.2 SW 12 17 1027.4 - 0.0 - - - - - - -
20/04:30pm 12.5 SW 15 22 1027.1 - 0.0 - - - - - - -

Other Formats:

Comma delimited format used in spreadsheet applications
http://www.bom.gov.au/fwo/IDT60701/IDT60701.94953.axf

JavaScript Object Notation format (JSON) in row-major order
http://www.bom.gov.au/fwo/IDT60701/IDT60701.94953.json